sensor_id;sensor_type;location;lat;lon;timestamp;P1;durP1;ratioP1;P2;durP2;ratioP2
33367;SDS011;19724;51.114;13.906;2023-03-26T00:00:54;5.25;;;1.48;;
33367;SDS011;19724;51.114;13.906;2023-03-26T00:03:20;3.70;;;1.50;;
33367;SDS011;19724;51.114;13.906;2023-03-26T00:05:46;5.05;;;1.40;;
33367;SDS011;19724;51.114;13.906;2023-03-26T00:08:12;5.95;;;1.80;;
33367;SDS011;19724;51.114;13.906;2023-03-26T00:10:39;9.15;;;1.90;;
33367;SDS011;19724;51.114;13.906;2023-03-26T00:13:06;12.30;;;2.92;;
33367;SDS011;19724;51.114;13.906;2023-03-26T00:15:32;5.95;;;1.67;;
33367;SDS011;19724;51.114;13.906;2023-03-26T00:17:59;8.88;;;2.20;;
33367;SDS011;19724;51.114;13.906;2023-03-26T00:20:25;4.35;;;1.83;;
33367;SDS011;19724;51.114;13.906;2023-03-26T00:22:52;7.10;;;2.17;;
33367;SDS011;19724;51.114;13.906;2023-03-26T00:25:19;7.15;;;1.95;;
33367;SDS011;19724;51.114;13.906;2023-03-26T00:27:45;8.48;;;2.53;;
33367;SDS011;19724;51.114;13.906;2023-03-26T00:30:11;6.18;;;1.92;;
33367;SDS011;19724;51.114;13.906;2023-03-26T00:32:36;5.22;;;1.52;;
33367;SDS011;19724;51.114;13.906;2023-03-26T00:35:02;5.90;;;1.67;;
33367;SDS011;19724;51.114;13.906;2023-03-26T00:37:28;8.63;;;3.22;;
33367;SDS011;19724;51.114;13.906;2023-03-26T00:39:54;7.85;;;2.17;;
33367;SDS011;19724;51.114;13.906;2023-03-26T00:42:32;8.30;;;2.13;;
33367;SDS011;19724;51.114;13.906;2023-03-26T00:44:58;5.55;;;1.98;;
33367;SDS011;19724;51.114;13.906;2023-03-26T00:47:25;9.18;;;1.70;;
33367;SDS011;19724;51.114;13.906;2023-03-26T00:49:51;7.35;;;2.33;;
33367;SDS011;19724;51.114;13.906;2023-03-26T00:52:18;6.25;;;1.65;;
33367;SDS011;19724;51.114;13.906;2023-03-26T00:54:47;5.85;;;2.08;;
33367;SDS011;19724;51.114;13.906;2023-03-26T00:57:16;3.67;;;1.55;;
33367;SDS011;19724;51.114;13.906;2023-03-26T00:59:42;4.75;;;1.58;;
33367;SDS011;19724;51.114;13.906;2023-03-26T01:02:10;7.47;;;1.80;;
33367;SDS011;19724;51.114;13.906;2023-03-26T01:04:43;8.32;;;1.58;;
33367;SDS011;19724;51.114;13.906;2023-03-26T01:07:11;4.35;;;1.70;;
33367;SDS011;19724;51.114;13.906;2023-03-26T01:09:41;3.38;;;1.35;;
33367;SDS011;19724;51.114;13.906;2023-03-26T01:12:14;5.70;;;1.83;;
33367;SDS011;19724;51.114;13.906;2023-03-26T01:14:43;5.30;;;2.08;;
33367;SDS011;19724;51.114;13.906;2023-03-26T01:17:10;6.65;;;1.35;;
33367;SDS011;19724;51.114;13.906;2023-03-26T01:22:09;6.32;;;1.40;;
33367;SDS011;19724;51.114;13.906;2023-03-26T01:24:39;5.05;;;1.50;;
33367;SDS011;19724;51.114;13.906;2023-03-26T01:27:08;6.07;;;1.60;;
33367;SDS011;19724;51.114;13.906;2023-03-26T01:30:09;4.20;;;1.42;;
33367;SDS011;19724;51.114;13.906;2023-03-26T01:38:28;3.40;;;1.75;;
33367;SDS011;19724;51.114;13.906;2023-03-26T01:41:03;7.78;;;2.28;;
33367;SDS011;19724;51.114;13.906;2023-03-26T01:43:46;9.50;;;1.92;;
33367;SDS011;19724;51.114;13.906;2023-03-26T01:46:38;4.22;;;1.80;;
33367;SDS011;19724;51.114;13.906;2023-03-26T01:49:05;5.22;;;1.83;;
33367;SDS011;19724;51.114;13.906;2023-03-26T01:51:36;4.88;;;2.15;;
33367;SDS011;19724;51.114;13.906;2023-03-26T01:54:04;7.30;;;1.85;;
33367;SDS011;19724;51.114;13.906;2023-03-26T01:56:40;9.23;;;1.80;;
33367;SDS011;19724;51.114;13.906;2023-03-26T02:02:16;4.95;;;1.70;;
33367;SDS011;19724;51.114;13.906;2023-03-26T02:05:16;5.57;;;2.03;;
33367;SDS011;19724;51.114;13.906;2023-03-26T02:10:46;6.10;;;2.40;;
33367;SDS011;19724;51.114;13.906;2023-03-26T02:13:15;5.38;;;1.65;;
33367;SDS011;19724;51.114;13.906;2023-03-26T02:15:53;2.97;;;1.65;;
33367;SDS011;19724;51.114;13.906;2023-03-26T02:18:26;5.88;;;1.92;;
33367;SDS011;19724;51.114;13.906;2023-03-26T02:21:05;4.03;;;1.88;;
33367;SDS011;19724;51.114;13.906;2023-03-26T02:23:52;3.97;;;1.70;;
33367;SDS011;19724;51.114;13.906;2023-03-26T02:26:26;8.13;;;2.25;;
33367;SDS011;19724;51.114;13.906;2023-03-26T02:28:52;4.88;;;1.75;;
33367;SDS011;19724;51.114;13.906;2023-03-26T02:31:17;7.03;;;2.03;;
33367;SDS011;19724;51.114;13.906;2023-03-26T02:33:43;3.45;;;1.65;;
33367;SDS011;19724;51.114;13.906;2023-03-26T02:36:11;3.38;;;1.45;;
33367;SDS011;19724;51.114;13.906;2023-03-26T02:38:38;4.03;;;1.33;;
33367;SDS011;19724;51.114;13.906;2023-03-26T02:41:04;3.75;;;1.17;;
33367;SDS011;19724;51.114;13.906;2023-03-26T02:43:29;5.30;;;1.98;;
33367;SDS011;19724;51.114;13.906;2023-03-26T02:45:55;4.28;;;1.75;;
33367;SDS011;19724;51.114;13.906;2023-03-26T02:48:21;3.70;;;1.30;;
33367;SDS011;19724;51.114;13.906;2023-03-26T02:50:47;2.85;;;1.45;;
33367;SDS011;19724;51.114;13.906;2023-03-26T02:53:14;4.97;;;1.65;;
33367;SDS011;19724;51.114;13.906;2023-03-26T02:55:40;3.40;;;1.50;;
33367;SDS011;19724;51.114;13.906;2023-03-26T02:58:06;6.90;;;1.70;;
33367;SDS011;19724;51.114;13.906;2023-03-26T03:00:32;3.92;;;1.58;;
33367;SDS011;19724;51.114;13.906;2023-03-26T03:02:58;2.60;;;1.33;;
33367;SDS011;19724;51.114;13.906;2023-03-26T03:05:24;2.85;;;1.08;;
33367;SDS011;19724;51.114;13.906;2023-03-26T03:07:55;3.42;;;1.98;;
33367;SDS011;19724;51.114;13.906;2023-03-26T03:10:22;7.47;;;1.50;;
33367;SDS011;19724;51.114;13.906;2023-03-26T03:12:48;5.53;;;1.48;;
33367;SDS011;19724;51.114;13.906;2023-03-26T03:15:14;2.47;;;1.50;;
33367;SDS011;19724;51.114;13.906;2023-03-26T03:17:39;5.07;;;1.42;;
33367;SDS011;19724;51.114;13.906;2023-03-26T03:20:05;6.05;;;1.23;;
33367;SDS011;19724;51.114;13.906;2023-03-26T03:22:33;4.00;;;1.52;;
33367;SDS011;19724;51.114;13.906;2023-03-26T03:24:59;3.65;;;1.58;;
33367;SDS011;19724;51.114;13.906;2023-03-26T03:27:25;4.97;;;1.63;;
33367;SDS011;19724;51.114;13.906;2023-03-26T03:29:50;3.47;;;1.63;;
33367;SDS011;19724;51.114;13.906;2023-03-26T03:32:20;6.20;;;1.63;;
33367;SDS011;19724;51.114;13.906;2023-03-26T03:34:47;5.10;;;1.70;;
33367;SDS011;19724;51.114;13.906;2023-03-26T03:37:14;4.82;;;1.92;;
33367;SDS011;19724;51.114;13.906;2023-03-26T03:39:43;5.25;;;1.52;;
33367;SDS011;19724;51.114;13.906;2023-03-26T03:42:09;3.75;;;1.45;;
33367;SDS011;19724;51.114;13.906;2023-03-26T03:44:35;5.18;;;1.70;;
33367;SDS011;19724;51.114;13.906;2023-03-26T03:47:00;3.95;;;1.30;;
33367;SDS011;19724;51.114;13.906;2023-03-26T03:49:26;6.55;;;1.60;;
33367;SDS011;19724;51.114;13.906;2023-03-26T03:51:51;3.63;;;2.35;;
33367;SDS011;19724;51.114;13.906;2023-03-26T03:54:17;2.00;;;1.20;;
33367;SDS011;19724;51.114;13.906;2023-03-26T03:56:42;3.75;;;1.52;;
33367;SDS011;19724;51.114;13.906;2023-03-26T03:59:09;3.92;;;1.55;;
33367;SDS011;19724;51.114;13.906;2023-03-26T04:01:35;5.43;;;1.90;;
33367;SDS011;19724;51.114;13.906;2023-03-26T04:04:01;4.22;;;1.83;;
33367;SDS011;19724;51.114;13.906;2023-03-26T04:06:27;4.78;;;1.77;;
33367;SDS011;19724;51.114;13.906;2023-03-26T04:08:54;4.40;;;1.58;;
33367;SDS011;19724;51.114;13.906;2023-03-26T04:11:20;5.20;;;1.40;;
33367;SDS011;19724;51.114;13.906;2023-03-26T04:13:46;3.75;;;1.67;;
33367;SDS011;19724;51.114;13.906;2023-03-26T04:16:12;3.13;;;1.50;;
33367;SDS011;19724;51.114;13.906;2023-03-26T04:18:39;5.50;;;1.63;;
33367;SDS011;19724;51.114;13.906;2023-03-26T04:21:04;4.18;;;1.50;;
33367;SDS011;19724;51.114;13.906;2023-03-26T04:23:31;2.92;;;1.35;;
33367;SDS011;19724;51.114;13.906;2023-03-26T04:25:59;6.75;;;1.65;;
33367;SDS011;19724;51.114;13.906;2023-03-26T04:28:30;4.10;;;1.65;;
33367;SDS011;19724;51.114;13.906;2023-03-26T04:31:10;3.97;;;1.35;;
33367;SDS011;19724;51.114;13.906;2023-03-26T04:33:39;15.60;;;3.13;;
33367;SDS011;19724;51.114;13.906;2023-03-26T04:36:10;4.20;;;1.50;;
33367;SDS011;19724;51.114;13.906;2023-03-26T04:38:41;4.40;;;1.60;;
33367;SDS011;19724;51.114;13.906;2023-03-26T04:41:10;3.95;;;1.52;;
33367;SDS011;19724;51.114;13.906;2023-03-26T04:43:36;10.27;;;2.47;;
33367;SDS011;19724;51.114;13.906;2023-03-26T04:46:06;2.75;;;1.50;;
33367;SDS011;19724;51.114;13.906;2023-03-26T04:48:34;7.32;;;1.88;;
33367;SDS011;19724;51.114;13.906;2023-03-26T04:51:02;4.95;;;1.88;;
33367;SDS011;19724;51.114;13.906;2023-03-26T04:53:30;5.78;;;2.22;;
33367;SDS011;19724;51.114;13.906;2023-03-26T04:55:58;3.22;;;1.73;;
33367;SDS011;19724;51.114;13.906;2023-03-26T04:58:30;5.82;;;1.75;;
33367;SDS011;19724;51.114;13.906;2023-03-26T05:00:58;6.00;;;2.13;;
33367;SDS011;19724;51.114;13.906;2023-03-26T05:03:26;3.90;;;1.60;;
33367;SDS011;19724;51.114;13.906;2023-03-26T05:05:56;4.68;;;1.67;;
33367;SDS011;19724;51.114;13.906;2023-03-26T05:08:23;5.45;;;1.90;;
33367;SDS011;19724;51.114;13.906;2023-03-26T05:10:49;7.97;;;2.00;;
33367;SDS011;19724;51.114;13.906;2023-03-26T05:13:14;4.30;;;1.67;;
33367;SDS011;19724;51.114;13.906;2023-03-26T05:15:40;6.30;;;2.03;;
33367;SDS011;19724;51.114;13.906;2023-03-26T05:18:05;5.40;;;1.75;;
33367;SDS011;19724;51.114;13.906;2023-03-26T05:20:32;4.45;;;1.80;;
33367;SDS011;19724;51.114;13.906;2023-03-26T05:22:58;8.15;;;3.10;;
33367;SDS011;19724;51.114;13.906;2023-03-26T05:25:23;7.60;;;2.10;;
33367;SDS011;19724;51.114;13.906;2023-03-26T05:27:49;5.70;;;1.98;;
33367;SDS011;19724;51.114;13.906;2023-03-26T05:30:16;7.85;;;1.98;;
33367;SDS011;19724;51.114;13.906;2023-03-26T05:32:43;7.32;;;1.75;;
33367;SDS011;19724;51.114;13.906;2023-03-26T05:35:09;7.47;;;2.15;;
33367;SDS011;19724;51.114;13.906;2023-03-26T05:37:36;7.07;;;2.13;;
33367;SDS011;19724;51.114;13.906;2023-03-26T05:40:03;8.18;;;2.28;;
33367;SDS011;19724;51.114;13.906;2023-03-26T05:42:35;8.07;;;2.28;;
33367;SDS011;19724;51.114;13.906;2023-03-26T05:45:00;5.95;;;2.83;;
33367;SDS011;19724;51.114;13.906;2023-03-26T05:47:26;7.60;;;2.45;;
33367;SDS011;19724;51.114;13.906;2023-03-26T05:49:51;5.38;;;2.10;;
33367;SDS011;19724;51.114;13.906;2023-03-26T05:52:17;6.30;;;1.52;;
33367;SDS011;19724;51.114;13.906;2023-03-26T05:54:43;11.88;;;2.22;;
33367;SDS011;19724;51.114;13.906;2023-03-26T05:57:08;10.70;;;2.42;;
33367;SDS011;19724;51.114;13.906;2023-03-26T05:59:34;6.15;;;2.03;;
33367;SDS011;19724;51.114;13.906;2023-03-26T06:02:00;9.68;;;2.20;;
33367;SDS011;19724;51.114;13.906;2023-03-26T06:04:26;17.00;;;4.75;;
33367;SDS011;19724;51.114;13.906;2023-03-26T06:06:52;6.97;;;1.83;;
33367;SDS011;19724;51.114;13.906;2023-03-26T06:09:18;6.57;;;2.25;;
33367;SDS011;19724;51.114;13.906;2023-03-26T06:11:43;5.22;;;1.80;;
33367;SDS011;19724;51.114;13.906;2023-03-26T06:14:09;6.43;;;2.20;;
33367;SDS011;19724;51.114;13.906;2023-03-26T06:16:35;7.18;;;1.80;;
33367;SDS011;19724;51.114;13.906;2023-03-26T06:19:00;7.10;;;1.90;;
33367;SDS011;19724;51.114;13.906;2023-03-26T06:21:26;8.57;;;2.08;;
33367;SDS011;19724;51.114;13.906;2023-03-26T06:23:52;7.45;;;1.95;;
33367;SDS011;19724;51.114;13.906;2023-03-26T06:26:18;9.77;;;1.90;;
33367;SDS011;19724;51.114;13.906;2023-03-26T06:28:43;7.82;;;1.92;;
33367;SDS011;19724;51.114;13.906;2023-03-26T06:31:09;7.20;;;2.30;;
33367;SDS011;19724;51.114;13.906;2023-03-26T06:33:35;6.53;;;1.95;;
33367;SDS011;19724;51.114;13.906;2023-03-26T06:36:00;6.32;;;2.13;;
33367;SDS011;19724;51.114;13.906;2023-03-26T06:38:25;3.92;;;1.83;;
33367;SDS011;19724;51.114;13.906;2023-03-26T06:40:51;5.20;;;1.92;;
33367;SDS011;19724;51.114;13.906;2023-03-26T06:43:16;5.68;;;1.63;;
33367;SDS011;19724;51.114;13.906;2023-03-26T06:45:42;5.00;;;1.83;;
33367;SDS011;19724;51.114;13.906;2023-03-26T06:48:07;8.73;;;1.92;;
33367;SDS011;19724;51.114;13.906;2023-03-26T06:50:33;3.80;;;1.40;;
33367;SDS011;19724;51.114;13.906;2023-03-26T06:52:59;4.55;;;1.60;;
33367;SDS011;19724;51.114;13.906;2023-03-26T06:55:25;6.03;;;2.13;;
33367;SDS011;19724;51.114;13.906;2023-03-26T06:57:51;6.57;;;1.95;;
33367;SDS011;19724;51.114;13.906;2023-03-26T07:00:18;5.93;;;1.42;;
33367;SDS011;19724;51.114;13.906;2023-03-26T07:02:44;7.00;;;1.65;;
33367;SDS011;19724;51.114;13.906;2023-03-26T07:05:11;9.80;;;2.05;;
33367;SDS011;19724;51.114;13.906;2023-03-26T07:07:37;6.15;;;1.77;;
33367;SDS011;19724;51.114;13.906;2023-03-26T07:10:03;4.38;;;1.40;;
33367;SDS011;19724;51.114;13.906;2023-03-26T07:12:30;9.35;;;2.13;;
33367;SDS011;19724;51.114;13.906;2023-03-26T07:14:55;4.82;;;1.42;;
33367;SDS011;19724;51.114;13.906;2023-03-26T07:17:21;4.53;;;1.73;;
33367;SDS011;19724;51.114;13.906;2023-03-26T07:19:46;5.43;;;1.65;;
33367;SDS011;19724;51.114;13.906;2023-03-26T07:22:14;10.80;;;2.05;;
33367;SDS011;19724;51.114;13.906;2023-03-26T07:24:44;5.90;;;1.73;;
33367;SDS011;19724;51.114;13.906;2023-03-26T07:27:19;7.65;;;2.03;;
33367;SDS011;19724;51.114;13.906;2023-03-26T07:30:03;6.00;;;1.42;;
33367;SDS011;19724;51.114;13.906;2023-03-26T07:32:40;6.70;;;2.30;;
33367;SDS011;19724;51.114;13.906;2023-03-26T07:38:02;6.38;;;2.72;;
33367;SDS011;19724;51.114;13.906;2023-03-26T07:43:57;7.47;;;2.03;;
33367;SDS011;19724;51.114;13.906;2023-03-26T07:46:32;4.07;;;1.85;;
33367;SDS011;19724;51.114;13.906;2023-03-26T07:49:01;5.75;;;2.05;;
33367;SDS011;19724;51.114;13.906;2023-03-26T07:51:28;6.07;;;1.90;;
33367;SDS011;19724;51.114;13.906;2023-03-26T07:53:54;5.03;;;2.00;;
33367;SDS011;19724;51.114;13.906;2023-03-26T07:56:30;5.63;;;1.85;;
33367;SDS011;19724;51.114;13.906;2023-03-26T08:01:50;6.15;;;1.98;;
33367;SDS011;19724;51.114;13.906;2023-03-26T08:15:45;4.40;;;1.70;;
33367;SDS011;19724;51.114;13.906;2023-03-26T08:18:30;2.97;;;1.52;;
33367;SDS011;19724;51.114;13.906;2023-03-26T08:21:21;3.63;;;1.95;;
33367;SDS011;19724;51.114;13.906;2023-03-26T08:24:03;3.13;;;1.38;;
33367;SDS011;19724;51.114;13.906;2023-03-26T08:26:46;3.20;;;1.58;;
33367;SDS011;19724;51.114;13.906;2023-03-26T08:29:24;7.40;;;1.67;;
33367;SDS011;19724;51.114;13.906;2023-03-26T08:32:22;4.35;;;1.75;;
33367;SDS011;19724;51.114;13.906;2023-03-26T08:34:48;3.63;;;1.55;;
33367;SDS011;19724;51.114;13.906;2023-03-26T08:37:13;4.45;;;1.67;;
33367;SDS011;19724;51.114;13.906;2023-03-26T08:39:39;5.93;;;1.90;;
33367;SDS011;19724;51.114;13.906;2023-03-26T08:50:49;6.20;;;1.52;;
33367;SDS011;19724;51.114;13.906;2023-03-26T08:53:43;5.00;;;2.38;;
33367;SDS011;19724;51.114;13.906;2023-03-26T08:56:31;6.07;;;1.70;;
33367;SDS011;19724;51.114;13.906;2023-03-26T09:10:32;3.85;;;1.77;;
33367;SDS011;19724;51.114;13.906;2023-03-26T09:21:37;6.75;;;1.92;;
33367;SDS011;19724;51.114;13.906;2023-03-26T09:38:17;4.65;;;2.00;;
33367;SDS011;19724;51.114;13.906;2023-03-26T09:40:57;6.13;;;2.05;;
33367;SDS011;19724;51.114;13.906;2023-03-26T09:46:33;5.38;;;2.47;;
33367;SDS011;19724;51.114;13.906;2023-03-26T09:52:08;7.80;;;1.98;;
33367;SDS011;19724;51.114;13.906;2023-03-26T10:00:43;8.18;;;2.65;;
33367;SDS011;19724;51.114;13.906;2023-03-26T10:03:27;7.07;;;3.38;;
33367;SDS011;19724;51.114;13.906;2023-03-26T10:09:12;5.68;;;2.10;;
33367;SDS011;19724;51.114;13.906;2023-03-26T10:14:37;7.07;;;2.22;;
33367;SDS011;19724;51.114;13.906;2023-03-26T10:20:43;4.28;;;2.22;;
33367;SDS011;19724;51.114;13.906;2023-03-26T10:28:37;6.05;;;1.88;;
33367;SDS011;19724;51.114;13.906;2023-03-26T10:33:50;4.10;;;1.67;;
33367;SDS011;19724;51.114;13.906;2023-03-26T10:36:43;4.97;;;2.05;;
33367;SDS011;19724;51.114;13.906;2023-03-26T10:50:48;6.15;;;1.85;;
33367;SDS011;19724;51.114;13.906;2023-03-26T10:53:37;4.82;;;1.35;;
33367;SDS011;19724;51.114;13.906;2023-03-26T10:56:31;7.10;;;1.90;;
33367;SDS011;19724;51.114;13.906;2023-03-26T10:59:00;5.22;;;1.83;;
33367;SDS011;19724;51.114;13.906;2023-03-26T11:01:34;4.72;;;1.88;;
33367;SDS011;19724;51.114;13.906;2023-03-26T11:04:16;3.15;;;1.35;;
33367;SDS011;19724;51.114;13.906;2023-03-26T11:12:48;4.10;;;1.80;;
33367;SDS011;19724;51.114;13.906;2023-03-26T11:15:28;4.72;;;1.60;;
33367;SDS011;19724;51.114;13.906;2023-03-26T11:26:28;4.90;;;1.45;;
33367;SDS011;19724;51.114;13.906;2023-03-26T11:29:19;4.43;;;1.65;;
33367;SDS011;19724;51.114;13.906;2023-03-26T11:34:48;7.30;;;2.08;;
33367;SDS011;19724;51.114;13.906;2023-03-26T11:37:18;7.18;;;1.75;;
33367;SDS011;19724;51.114;13.906;2023-03-26T11:39:57;2.53;;;0.95;;
33367;SDS011;19724;51.114;13.906;2023-03-26T11:42:25;3.33;;;1.30;;
33367;SDS011;19724;51.114;13.906;2023-03-26T11:45:03;5.18;;;1.75;;
33367;SDS011;19724;51.114;13.906;2023-03-26T11:47:37;2.78;;;1.08;;
33367;SDS011;19724;51.114;13.906;2023-03-26T11:50:06;4.43;;;1.33;;
33367;SDS011;19724;51.114;13.906;2023-03-26T11:52:39;4.30;;;1.58;;
33367;SDS011;19724;51.114;13.906;2023-03-26T11:55:05;3.40;;;1.10;;
33367;SDS011;19724;51.114;13.906;2023-03-26T11:57:31;3.03;;;1.15;;
33367;SDS011;19724;51.114;13.906;2023-03-26T12:00:04;6.40;;;1.55;;
33367;SDS011;19724;51.114;13.906;2023-03-26T12:02:43;5.82;;;1.50;;
33367;SDS011;19724;51.114;13.906;2023-03-26T12:07:43;6.75;;;1.50;;
33367;SDS011;19724;51.114;13.906;2023-03-26T12:10:21;5.95;;;1.70;;
33367;SDS011;19724;51.114;13.906;2023-03-26T12:12:47;6.30;;;1.73;;
33367;SDS011;19724;51.114;13.906;2023-03-26T12:15:16;5.65;;;1.92;;
33367;SDS011;19724;51.114;13.906;2023-03-26T12:17:44;3.40;;;1.70;;
33367;SDS011;19724;51.114;13.906;2023-03-26T12:22:49;7.82;;;3.35;;
33367;SDS011;19724;51.114;13.906;2023-03-26T12:25:31;5.68;;;2.10;;
33367;SDS011;19724;51.114;13.906;2023-03-26T12:28:01;5.28;;;1.98;;
33367;SDS011;19724;51.114;13.906;2023-03-26T12:30:30;7.65;;;2.95;;
33367;SDS011;19724;51.114;13.906;2023-03-26T12:35:53;3.47;;;1.60;;
33367;SDS011;19724;51.114;13.906;2023-03-26T12:43:29;4.68;;;1.70;;
33367;SDS011;19724;51.114;13.906;2023-03-26T12:46:02;6.03;;;2.00;;
33367;SDS011;19724;51.114;13.906;2023-03-26T12:48:28;4.95;;;1.40;;
33367;SDS011;19724;51.114;13.906;2023-03-26T12:51:01;3.63;;;1.48;;
33367;SDS011;19724;51.114;13.906;2023-03-26T12:54:01;4.32;;;1.65;;
33367;SDS011;19724;51.114;13.906;2023-03-26T12:56:30;2.47;;;1.52;;
33367;SDS011;19724;51.114;13.906;2023-03-26T12:59:20;4.43;;;1.55;;
33367;SDS011;19724;51.114;13.906;2023-03-26T13:04:43;4.55;;;1.98;;
33367;SDS011;19724;51.114;13.906;2023-03-26T13:07:38;6.18;;;1.88;;
33367;SDS011;19724;51.114;13.906;2023-03-26T13:18:53;5.88;;;1.85;;
33367;SDS011;19724;51.114;13.906;2023-03-26T13:21:38;7.30;;;1.75;;
33367;SDS011;19724;51.114;13.906;2023-03-26T13:27:02;4.22;;;1.30;;
33367;SDS011;19724;51.114;13.906;2023-03-26T13:29:33;5.65;;;1.55;;
33367;SDS011;19724;51.114;13.906;2023-03-26T13:32:29;3.92;;;1.50;;
33367;SDS011;19724;51.114;13.906;2023-03-26T13:37:49;3.60;;;1.40;;
33367;SDS011;19724;51.114;13.906;2023-03-26T13:40:36;3.60;;;1.30;;
33367;SDS011;19724;51.114;13.906;2023-03-26T13:43:28;3.45;;;1.40;;
33367;SDS011;19724;51.114;13.906;2023-03-26T13:46:20;3.95;;;1.90;;
33367;SDS011;19724;51.114;13.906;2023-03-26T13:49:02;5.63;;;2.00;;
33367;SDS011;19724;51.114;13.906;2023-03-26T13:51:38;2.10;;;1.10;;
33367;SDS011;19724;51.114;13.906;2023-03-26T13:54:14;3.80;;;1.73;;
33367;SDS011;19724;51.114;13.906;2023-03-26T13:56:49;4.47;;;1.60;;
33367;SDS011;19724;51.114;13.906;2023-03-26T13:59:40;6.95;;;2.20;;
33367;SDS011;19724;51.114;13.906;2023-03-26T14:02:22;4.93;;;2.72;;
33367;SDS011;19724;51.114;13.906;2023-03-26T14:05:02;7.28;;;2.22;;
33367;SDS011;19724;51.114;13.906;2023-03-26T14:07:49;6.03;;;1.88;;
33367;SDS011;19724;51.114;13.906;2023-03-26T14:10:20;3.58;;;1.90;;
33367;SDS011;19724;51.114;13.906;2023-03-26T14:12:55;5.03;;;2.40;;
33367;SDS011;19724;51.114;13.906;2023-03-26T14:15:52;5.85;;;2.30;;
33367;SDS011;19724;51.114;13.906;2023-03-26T14:23:41;7.32;;;2.50;;
33367;SDS011;19724;51.114;13.906;2023-03-26T14:26:25;6.95;;;1.75;;
33367;SDS011;19724;51.114;13.906;2023-03-26T14:31:45;6.38;;;1.65;;
33367;SDS011;19724;51.114;13.906;2023-03-26T14:37:31;4.35;;;1.40;;
33367;SDS011;19724;51.114;13.906;2023-03-26T14:40:29;3.92;;;1.30;;
33367;SDS011;19724;51.114;13.906;2023-03-26T14:46:34;2.92;;;1.23;;
33367;SDS011;19724;51.114;13.906;2023-03-26T14:49:13;6.38;;;1.77;;
33367;SDS011;19724;51.114;13.906;2023-03-26T14:52:15;5.68;;;1.20;;
33367;SDS011;19724;51.114;13.906;2023-03-26T14:55:01;4.22;;;1.20;;
33367;SDS011;19724;51.114;13.906;2023-03-26T14:57:52;3.58;;;1.13;;
33367;SDS011;19724;51.114;13.906;2023-03-26T15:03:46;9.63;;;1.60;;
33367;SDS011;19724;51.114;13.906;2023-03-26T15:09:25;5.15;;;1.33;;
33367;SDS011;19724;51.114;13.906;2023-03-26T15:12:34;7.47;;;2.38;;
33367;SDS011;19724;51.114;13.906;2023-03-26T15:18:29;5.50;;;1.80;;
33367;SDS011;19724;51.114;13.906;2023-03-26T15:21:18;4.18;;;1.52;;
33367;SDS011;19724;51.114;13.906;2023-03-26T15:24:25;6.07;;;1.90;;
33367;SDS011;19724;51.114;13.906;2023-03-26T15:33:06;6.00;;;1.90;;
33367;SDS011;19724;51.114;13.906;2023-03-26T15:47:10;8.25;;;1.98;;
33367;SDS011;19724;51.114;13.906;2023-03-26T15:50:23;4.28;;;1.77;;
33367;SDS011;19724;51.114;13.906;2023-03-26T15:58:29;6.55;;;2.00;;
33367;SDS011;19724;51.114;13.906;2023-03-26T16:01:20;4.35;;;1.65;;
33367;SDS011;19724;51.114;13.906;2023-03-26T16:06:36;5.00;;;2.00;;
33367;SDS011;19724;51.114;13.906;2023-03-26T16:14:42;8.60;;;1.90;;
33367;SDS011;19724;51.114;13.906;2023-03-26T16:17:26;4.00;;;1.63;;
33367;SDS011;19724;51.114;13.906;2023-03-26T16:22:34;7.50;;;1.80;;
33367;SDS011;19724;51.114;13.906;2023-03-26T16:28:14;8.27;;;2.30;;
33367;SDS011;19724;51.114;13.906;2023-03-26T16:30:46;3.30;;;1.40;;
33367;SDS011;19724;51.114;13.906;2023-03-26T16:34:17;5.18;;;2.22;;
33367;SDS011;19724;51.114;13.906;2023-03-26T16:39:10;3.38;;;1.65;;
33367;SDS011;19724;51.114;13.906;2023-03-26T16:45:09;5.97;;;2.10;;
33367;SDS011;19724;51.114;13.906;2023-03-26T16:53:22;4.35;;;2.00;;
33367;SDS011;19724;51.114;13.906;2023-03-26T16:55:52;4.90;;;2.20;;
33367;SDS011;19724;51.114;13.906;2023-03-26T16:58:28;7.13;;;2.80;;
33367;SDS011;19724;51.114;13.906;2023-03-26T17:04:17;5.20;;;2.63;;
33367;SDS011;19724;51.114;13.906;2023-03-26T17:09:30;5.57;;;2.55;;
33367;SDS011;19724;51.114;13.906;2023-03-26T17:12:16;7.43;;;2.90;;
33367;SDS011;19724;51.114;13.906;2023-03-26T17:14:57;7.05;;;2.38;;
33367;SDS011;19724;51.114;13.906;2023-03-26T17:17:39;9.25;;;3.10;;
33367;SDS011;19724;51.114;13.906;2023-03-26T17:20:43;3.72;;;2.15;;
33367;SDS011;19724;51.114;13.906;2023-03-26T17:26:07;9.07;;;3.03;;
33367;SDS011;19724;51.114;13.906;2023-03-26T17:31:58;7.32;;;3.22;;
33367;SDS011;19724;51.114;13.906;2023-03-26T17:34:38;4.65;;;2.42;;
33367;SDS011;19724;51.114;13.906;2023-03-26T17:42:17;8.93;;;3.15;;
33367;SDS011;19724;51.114;13.906;2023-03-26T17:44:53;5.00;;;2.83;;
33367;SDS011;19724;51.114;13.906;2023-03-26T17:47:37;7.97;;;3.47;;
33367;SDS011;19724;51.114;13.906;2023-03-26T17:50:15;8.60;;;3.10;;
33367;SDS011;19724;51.114;13.906;2023-03-26T17:52:56;6.47;;;3.20;;
33367;SDS011;19724;51.114;13.906;2023-03-26T17:55:26;7.80;;;3.08;;
33367;SDS011;19724;51.114;13.906;2023-03-26T17:57:58;8.35;;;3.40;;
33367;SDS011;19724;51.114;13.906;2023-03-26T18:00:27;7.35;;;3.50;;
33367;SDS011;19724;51.114;13.906;2023-03-26T18:02:57;12.13;;;3.80;;
33367;SDS011;19724;51.114;13.906;2023-03-26T18:05:27;8.77;;;3.60;;
33367;SDS011;19724;51.114;13.906;2023-03-26T18:16:10;9.43;;;4.03;;
33367;SDS011;19724;51.114;13.906;2023-03-26T18:18:58;10.63;;;3.70;;
33367;SDS011;19724;51.114;13.906;2023-03-26T18:21:33;8.95;;;2.95;;
33367;SDS011;19724;51.114;13.906;2023-03-26T18:24:02;8.80;;;3.45;;
33367;SDS011;19724;51.114;13.906;2023-03-26T18:26:35;9.52;;;2.75;;
33367;SDS011;19724;51.114;13.906;2023-03-26T18:29:11;8.45;;;2.80;;
33367;SDS011;19724;51.114;13.906;2023-03-26T18:31:46;6.70;;;3.10;;
33367;SDS011;19724;51.114;13.906;2023-03-26T18:34:16;7.55;;;3.03;;
33367;SDS011;19724;51.114;13.906;2023-03-26T18:37:29;7.22;;;2.28;;
33367;SDS011;19724;51.114;13.906;2023-03-26T18:39:32;4.60;;;2.53;;
33367;SDS011;19724;51.114;13.906;2023-03-26T18:41:58;8.32;;;2.40;;
33367;SDS011;19724;51.114;13.906;2023-03-26T18:44:24;4.28;;;2.00;;
33367;SDS011;19724;51.114;13.906;2023-03-26T18:46:51;5.68;;;2.50;;
33367;SDS011;19724;51.114;13.906;2023-03-26T18:49:19;6.88;;;2.88;;
33367;SDS011;19724;51.114;13.906;2023-03-26T18:51:46;9.90;;;3.92;;
33367;SDS011;19724;51.114;13.906;2023-03-26T18:54:18;7.53;;;3.00;;
33367;SDS011;19724;51.114;13.906;2023-03-26T18:56:45;4.75;;;2.75;;
33367;SDS011;19724;51.114;13.906;2023-03-26T18:59:18;4.10;;;2.42;;
33367;SDS011;19724;51.114;13.906;2023-03-26T19:01:51;9.55;;;3.42;;
33367;SDS011;19724;51.114;13.906;2023-03-26T19:04:20;6.57;;;3.17;;
33367;SDS011;19724;51.114;13.906;2023-03-26T19:06:46;7.65;;;3.50;;
33367;SDS011;19724;51.114;13.906;2023-03-26T19:09:12;9.15;;;3.65;;
33367;SDS011;19724;51.114;13.906;2023-03-26T19:11:38;8.70;;;4.22;;
33367;SDS011;19724;51.114;13.906;2023-03-26T19:14:06;5.38;;;3.47;;
33367;SDS011;19724;51.114;13.906;2023-03-26T19:16:37;9.43;;;3.67;;
33367;SDS011;19724;51.114;13.906;2023-03-26T19:19:07;10.63;;;3.80;;
33367;SDS011;19724;51.114;13.906;2023-03-26T19:21:35;8.85;;;4.03;;
33367;SDS011;19724;51.114;13.906;2023-03-26T19:24:01;6.07;;;3.85;;
33367;SDS011;19724;51.114;13.906;2023-03-26T19:26:28;8.50;;;4.05;;
33367;SDS011;19724;51.114;13.906;2023-03-26T19:28:54;7.50;;;2.92;;